createdAt,value
2018-12-22T00:01:47.867Z,96748.39
2018-12-22T00:12:07.137Z,96767.27
2018-12-22T00:22:25.819Z,96747.88
2018-12-22T00:32:45.171Z,96753.95
2018-12-22T00:43:04.830Z,96720.73
2018-12-22T00:53:23.494Z,96720.73
2018-12-22T01:03:42.702Z,96741.80
2018-12-22T01:14:02.118Z,96756.39
2018-12-22T01:24:20.823Z,96759.03
2018-12-22T01:34:39.473Z,96752.59
2018-12-22T01:44:58.244Z,96761.23
2018-12-22T01:55:17.526Z,96756.53
2018-12-22T02:05:36.623Z,96752.59
2018-12-22T02:15:55.311Z,96745.78
2018-12-22T02:26:13.882Z,96788.46
2018-12-22T02:36:32.084Z,96759.63
2018-12-22T02:46:50.778Z,96749.06
2018-12-22T02:57:09.354Z,96757.63
2018-12-22T03:07:29.502Z,96778.22
2018-12-22T03:17:48.205Z,96765.47
2018-12-22T03:28:07.426Z,96773.10
2018-12-22T03:38:26.202Z,96784.95
2018-12-22T03:48:46.899Z,96794.48
2018-12-22T03:59:05.256Z,96791.33
2018-12-22T04:09:24.040Z,96776.50
2018-12-22T04:19:42.935Z,96763.08
2018-12-22T04:30:03.317Z,96752.39
2018-12-22T04:40:22.421Z,96752.44
2018-12-22T04:50:40.899Z,96760.20
2018-12-22T05:00:59.457Z,96780.14
2018-12-22T05:11:18.493Z,96766.60
2018-12-22T05:21:36.600Z,96770.22
2018-12-22T05:31:56.217Z,96771.66
2018-12-22T05:42:15.169Z,96793.73
2018-12-22T05:52:34.062Z,96808.39
2018-12-22T06:02:53.036Z,96815.19
2018-12-22T06:13:11.583Z,96761.73
2018-12-22T06:23:30.822Z,96751.11
2018-12-22T06:33:49.019Z,96806.73
2018-12-22T06:44:08.402Z,96808.20
2018-12-22T06:54:26.738Z,96775.33
2018-12-22T07:04:46.879Z,96708.50
2018-12-22T07:15:07.060Z,96710.13
2018-12-22T07:25:26.160Z,96673.66
2018-12-22T07:35:45.677Z,96673.66
2018-12-22T07:46:04.181Z,96693.31
2018-12-22T07:56:23.187Z,96820.23
2018-12-22T08:06:42.608Z,96907.61
2018-12-22T08:17:01.043Z,96917.38
2018-12-22T08:27:20.651Z,96902.33
2018-12-22T08:37:39.438Z,96902.33
2018-12-22T08:47:59.716Z,96897.57
2018-12-22T08:58:18.243Z,96896.45
2018-12-22T09:08:36.973Z,96856.44
2018-12-22T09:18:55.902Z,96804.11
2018-12-22T09:29:14.768Z,96811.45
2018-12-22T09:39:33.623Z,96827.06
2018-12-22T09:49:52.529Z,96812.38
2018-12-22T10:00:14.418Z,96828.20
2018-12-22T10:10:33.238Z,96817.14
2018-12-22T10:18:18.831Z,96821.49
2018-12-22T10:23:37.766Z,96830.91
2018-12-22T10:28:56.205Z,96813.68
2018-12-22T10:34:15.189Z,96812.02
2018-12-22T10:39:34.314Z,96807.02
2018-12-22T10:45:11.738Z,96794.39
2018-12-22T10:50:35.322Z,96820.30
2018-12-22T10:55:52.372Z,96802.34
2018-12-22T11:01:11.141Z,96804.30
2018-12-22T11:06:33.922Z,96805.27
2018-12-22T11:11:59.224Z,96823.00
2018-12-22T11:17:18.689Z,96817.12
2018-12-22T11:22:37.845Z,96807.80
2018-12-22T11:27:56.345Z,96816.56
2018-12-22T11:33:14.852Z,96848.75
2018-12-22T11:38:34.548Z,96854.50
2018-12-22T11:43:53.305Z,96854.14
2018-12-22T11:49:36.848Z,96820.89
2018-12-22T11:54:55.940Z,96811.72
2018-12-22T12:00:14.591Z,96785.88
2018-12-22T12:05:35.860Z,96821.43
2018-12-22T12:10:54.535Z,96847.30
2018-12-22T12:16:36.813Z,96841.07
2018-12-22T12:21:55.576Z,96887.63
2018-12-22T12:27:14.995Z,96987.37
2018-12-22T12:32:34.037Z,96987.37
2018-12-22T12:37:52.912Z,97000.91
2018-12-22T12:43:12.643Z,97000.91
2018-12-22T12:48:31.740Z,97010.75
2018-12-22T12:53:50.355Z,97012.31
2018-12-22T12:59:09.010Z,96974.86
2018-12-22T13:04:28.313Z,96966.22
2018-12-22T13:09:47.046Z,96970.21
2018-12-22T13:15:08.413Z,96983.95
2018-12-22T13:20:29.432Z,96969.95
2018-12-22T13:25:48.359Z,96968.34
2018-12-22T13:31:07.856Z,96994.78
2018-12-22T13:36:34.436Z,96960.20
2018-12-22T13:41:46.917Z,96983.71
2018-12-22T13:47:06.417Z,97003.62
2018-12-22T13:52:25.043Z,96994.98
2018-12-22T13:57:44.498Z,97001.09
2018-12-22T14:03:04.813Z,96977.77
2018-12-22T14:08:23.603Z,97033.77
2018-12-22T14:13:42.395Z,97027.67
2018-12-22T14:19:05.318Z,97028.66
2018-12-22T14:24:45.710Z,97034.20
2018-12-22T14:30:05.296Z,97042.67
2018-12-22T14:35:39.929Z,97076.69
2018-12-22T14:40:58.294Z,97076.69
2018-12-22T14:46:18.329Z,97069.44
2018-12-22T14:51:37.641Z,97099.98
2018-12-22T14:56:57.428Z,97154.95
2018-12-22T15:02:16.540Z,97128.97
2018-12-22T15:07:35.686Z,97148.93
2018-12-22T15:12:54.597Z,97142.08
2018-12-22T15:18:12.622Z,97139.37
2018-12-22T15:23:31.508Z,97136.37
2018-12-22T15:28:51.189Z,97165.13
2018-12-22T15:34:10.524Z,97143.89
2018-12-22T15:39:29.946Z,97155.78
2018-12-22T15:44:49.487Z,97140.77
2018-12-22T15:50:10.355Z,97150.59
2018-12-22T15:55:29.489Z,97150.13
2018-12-22T16:00:48.153Z,97139.06
2018-12-22T16:06:07.003Z,97152.50
2018-12-22T16:11:26.419Z,97146.59
2018-12-22T16:16:45.495Z,97148.85
2018-12-22T16:22:05.063Z,97170.45
2018-12-22T16:27:23.984Z,97146.44
2018-12-22T16:32:43.619Z,97148.30
2018-12-22T16:38:02.906Z,97154.33
2018-12-22T16:43:21.331Z,97168.08
2018-12-22T16:48:43.152Z,97168.08
2018-12-22T16:54:02.363Z,97189.16
2018-12-22T16:59:27.259Z,97203.34
2018-12-22T17:04:45.978Z,97203.42
2018-12-22T17:10:05.198Z,97246.98
2018-12-22T17:15:28.162Z,97246.98
2018-12-22T17:20:47.491Z,97249.75
2018-12-22T17:26:09.393Z,97332.67
2018-12-22T17:31:29.178Z,97316.27
2018-12-22T17:36:47.917Z,97327.77
2018-12-22T17:42:07.176Z,97342.97
2018-12-22T17:47:26.672Z,97341.80
2018-12-22T17:52:45.247Z,97348.20
2018-12-22T17:58:03.864Z,97350.14
2018-12-22T18:03:27.566Z,97351.19
2018-12-22T18:08:44.690Z,97342.54
2018-12-22T18:14:03.927Z,97343.23
2018-12-22T18:19:23.690Z,97341.06
2018-12-22T18:24:43.428Z,97347.12
2018-12-22T18:30:03.078Z,97350.73
2018-12-22T18:35:23.160Z,97354.52
2018-12-22T18:40:42.749Z,97356.44
2018-12-22T18:46:02.010Z,97344.12
2018-12-22T18:51:21.405Z,97345.69
2018-12-22T18:56:41.580Z,97340.20
2018-12-22T19:02:01.463Z,97337.59
2018-12-22T19:07:21.161Z,97320.77
2018-12-22T19:12:41.753Z,97325.77
2018-12-22T19:18:02.141Z,97334.44
2018-12-22T19:23:26.716Z,97345.45
2018-12-22T19:28:46.653Z,97347.89
2018-12-22T19:34:05.233Z,97351.19
2018-12-22T19:39:24.872Z,97318.37
2018-12-22T19:44:45.359Z,97357.66
2018-12-22T19:50:05.833Z,97360.56
2018-12-22T19:55:25.031Z,97366.80
2018-12-22T20:00:44.360Z,97375.65
2018-12-22T20:06:04.302Z,97367.48
2018-12-22T20:11:23.563Z,97356.44
2018-12-22T20:16:43.216Z,97376.23
2018-12-22T20:22:02.235Z,97372.03
2018-12-22T20:27:21.199Z,97380.78
2018-12-22T20:32:41.470Z,97399.81
2018-12-22T20:38:00.671Z,97414.22
2018-12-22T20:43:21.448Z,97420.57
2018-12-22T20:48:41.608Z,97446.45
2018-12-22T20:54:01.242Z,97432.88
2018-12-22T20:59:20.388Z,97424.90
2018-12-22T21:04:39.541Z,97434.09
2018-12-22T21:09:58.901Z,97437.30
2018-12-22T21:15:17.841Z,97444.89
2018-12-22T21:20:36.600Z,97467.75
2018-12-22T21:25:57.539Z,97482.98
2018-12-22T21:31:17.753Z,97480.48
2018-12-22T21:36:37.325Z,97485.34
2018-12-22T21:41:56.575Z,97486.06
2018-12-22T21:47:16.081Z,97505.94
2018-12-22T21:52:35.312Z,97530.48
2018-12-22T21:57:54.871Z,97523.66
2018-12-22T22:03:13.710Z,97519.62
2018-12-22T22:08:33.358Z,97506.86
2018-12-22T22:13:52.185Z,97508.34
2018-12-22T22:19:11.394Z,97522.64
2018-12-22T22:24:30.986Z,97515.42
2018-12-22T22:29:50.458Z,97513.22
2018-12-22T22:35:08.811Z,97528.70
2018-12-22T22:40:29.589Z,97508.61
2018-12-22T22:45:49.481Z,97511.63
2018-12-22T22:51:08.290Z,97515.22
2018-12-22T22:56:27.393Z,97491.72
2018-12-22T23:01:46.069Z,97508.73
2018-12-22T23:07:07.128Z,97492.13
2018-12-22T23:12:26.385Z,97496.84
2018-12-22T23:17:44.741Z,97509.28
2018-12-22T23:23:08.049Z,97501.66
2018-12-22T23:28:26.547Z,97491.69
2018-12-22T23:33:45.230Z,97497.20
2018-12-22T23:39:05.084Z,97486.66
2018-12-22T23:44:24.232Z,97467.03
2018-12-22T23:49:43.814Z,97475.08
2018-12-22T23:55:02.174Z,97499.48
